createdAt,value
2018-12-17T00:02:26.527Z,99845.98
2018-12-17T00:04:55.194Z,99843.05
2018-12-17T00:07:23.693Z,99841.28
2018-12-17T00:09:52.098Z,99841.02
2018-12-17T00:12:20.487Z,99838.63
2018-12-17T00:14:48.895Z,99838.99
2018-12-17T00:17:17.337Z,99833.66
2018-12-17T00:19:45.752Z,99836.46
2018-12-17T00:22:14.236Z,99831.77
2018-12-17T00:24:43.343Z,99832.16
2018-12-17T00:27:11.725Z,99830.06
2018-12-17T00:29:40.266Z,99827.59
2018-12-17T00:32:08.804Z,99829.30
2018-12-17T00:34:37.327Z,99828.17
2018-12-17T00:37:06.026Z,99825.61
2018-12-17T00:39:34.415Z,99826.20
2018-12-17T00:42:02.939Z,99836.27
2018-12-17T00:44:31.316Z,99834.34
2018-12-17T00:46:59.759Z,99835.05
2018-12-17T00:49:28.161Z,99837.31
2018-12-17T00:51:56.612Z,99835.41
2018-12-17T00:54:24.995Z,99840.48
2018-12-17T00:56:53.397Z,99836.73
2018-12-17T00:59:21.780Z,99842.70
2018-12-17T01:01:50.160Z,99845.02
2018-12-17T01:04:18.542Z,99835.38
2018-12-17T01:06:46.956Z,99831.31
2018-12-17T01:09:15.717Z,99830.75
2018-12-17T01:11:44.103Z,99827.52
2018-12-17T01:14:12.467Z,99829.29
2018-12-17T01:16:41.107Z,99830.45
2018-12-17T01:19:09.471Z,99831.84
2018-12-17T01:21:38.027Z,99830.12
2018-12-17T01:24:06.385Z,99833.16
2018-12-17T01:26:34.780Z,99833.55
2018-12-17T01:29:03.144Z,99830.20
2018-12-17T01:31:31.583Z,99833.75
2018-12-17T01:34:00.003Z,99827.39
2018-12-17T01:36:28.403Z,99835.38
2018-12-17T01:38:56.884Z,99843.81
2018-12-17T01:41:25.287Z,99840.13
2018-12-17T01:43:53.655Z,99834.20
2018-12-17T01:46:22.031Z,99843.74
2018-12-17T01:48:50.387Z,99849.05
2018-12-17T01:51:18.813Z,99842.83
2018-12-17T01:53:47.189Z,99845.88
2018-12-17T01:56:15.581Z,99855.66
2018-12-17T01:58:43.953Z,99860.58
2018-12-17T02:01:12.339Z,99865.53
2018-12-17T02:03:40.703Z,99867.90
2018-12-17T02:06:09.095Z,99866.23
2018-12-17T02:08:37.579Z,99875.27
2018-12-17T02:11:05.991Z,99881.02
2018-12-17T02:13:34.477Z,99869.63
2018-12-17T02:16:02.887Z,99884.09
2018-12-17T02:18:31.253Z,99883.62
2018-12-17T02:20:59.679Z,99878.54
2018-12-17T02:23:28.045Z,99890.92
2018-12-17T02:25:56.422Z,99886.87
2018-12-17T02:28:24.789Z,99892.47
2018-12-17T02:30:53.231Z,99889.88
2018-12-17T02:33:21.596Z,99882.91
2018-12-17T02:35:49.964Z,99883.41
2018-12-17T02:38:18.568Z,99890.03
2018-12-17T02:40:47.007Z,99889.40
2018-12-17T02:43:15.378Z,99897.47
2018-12-17T02:45:43.736Z,99897.75
2018-12-17T02:48:12.143Z,99897.16
2018-12-17T02:50:41.574Z,99898.82
2018-12-17T02:53:09.948Z,99901.56
2018-12-17T02:55:38.324Z,99902.93
2018-12-17T02:58:06.837Z,99901.09
2018-12-17T03:00:36.564Z,99903.63
2018-12-17T03:03:05.096Z,99895.20
2018-12-17T03:05:33.481Z,99901.28
2018-12-17T03:08:01.866Z,99897.22
2018-12-17T03:10:30.225Z,99900.58
2018-12-17T03:12:58.656Z,99905.78
2018-12-17T03:15:27.036Z,99904.01
2018-12-17T03:17:55.419Z,99910.50
2018-12-17T03:20:23.784Z,99907.70
2018-12-17T03:22:52.183Z,99911.43
2018-12-17T03:25:20.612Z,99911.77
2018-12-17T03:27:49.005Z,99915.69
2018-12-17T03:30:17.373Z,99926.22
2018-12-17T03:32:45.893Z,99923.81
2018-12-17T03:35:14.401Z,99922.61
2018-12-17T03:37:42.786Z,99928.11
2018-12-17T03:40:11.295Z,99921.77
2018-12-17T03:42:41.000Z,99924.13
2018-12-17T03:45:09.507Z,99929.36
2018-12-17T03:47:37.907Z,99933.61
2018-12-17T03:50:06.809Z,99931.66
2018-12-17T03:52:35.197Z,99935.91
2018-12-17T03:55:03.690Z,99939.37
2018-12-17T03:57:32.094Z,99940.70
2018-12-17T04:00:00.475Z,99935.20
2018-12-17T04:02:28.839Z,99935.35
2018-12-17T04:04:57.447Z,99933.31
2018-12-17T04:07:25.865Z,99935.18
2018-12-17T04:09:54.481Z,99937.48
2018-12-17T04:12:23.818Z,99934.81
2018-12-17T04:14:52.211Z,99935.82
2018-12-17T04:17:20.662Z,99930.44
2018-12-17T04:19:49.041Z,99937.23
2018-12-17T04:22:17.418Z,99937.48
2018-12-17T04:24:45.788Z,99935.92
2018-12-17T04:27:14.203Z,99938.13
2018-12-17T04:29:42.755Z,99937.70
2018-12-17T04:32:11.146Z,99927.20
2018-12-17T04:34:40.195Z,99936.30
2018-12-17T04:37:08.607Z,99946.41
2018-12-17T04:39:36.982Z,99936.95
2018-12-17T04:42:05.392Z,99951.29
2018-12-17T04:44:33.800Z,99947.49
2018-12-17T04:47:02.212Z,99953.33
2018-12-17T04:49:30.587Z,99957.05
2018-12-17T04:51:58.974Z,99952.83
2018-12-17T04:54:27.763Z,99966.47
2018-12-17T04:56:56.135Z,99965.27
2018-12-17T04:59:24.512Z,99966.69
2018-12-17T05:01:52.920Z,99980.58
2018-12-17T05:04:21.331Z,99986.83
2018-12-17T05:06:49.696Z,99997.63
2018-12-17T05:09:18.095Z,100000.34
2018-12-17T05:11:47.411Z,99998.99
2018-12-17T05:14:15.808Z,100007.37
2018-12-17T05:16:44.259Z,100011.14
2018-12-17T05:19:12.660Z,100011.59
2018-12-17T05:21:41.169Z,100015.83
2018-12-17T05:24:09.668Z,100016.90
2018-12-17T05:26:38.075Z,100015.42
2018-12-17T05:29:06.494Z,100018.55
2018-12-17T05:31:35.610Z,100011.69
2018-12-17T05:34:04.148Z,100020.67
2018-12-17T05:36:32.615Z,100021.64
2018-12-17T05:39:01.003Z,100025.88
2018-12-17T05:41:29.403Z,100028.02
2018-12-17T05:43:57.803Z,100031.52
2018-12-17T05:46:26.199Z,100033.47
2018-12-17T05:48:54.640Z,100033.58
2018-12-17T05:51:23.011Z,100040.71
2018-12-17T05:53:51.380Z,100047.91
2018-12-17T05:56:19.768Z,100047.19
2018-12-17T05:58:48.148Z,100045.45
2018-12-17T06:01:16.537Z,100051.31
2018-12-17T06:03:45.503Z,100048.42
2018-12-17T06:06:13.903Z,100055.55
2018-12-17T06:08:42.331Z,100060.39
2018-12-17T06:11:10.786Z,100066.44
2018-12-17T06:13:39.150Z,100066.05
2018-12-17T06:16:07.603Z,100074.19
2018-12-17T06:18:36.015Z,100072.23
2018-12-17T06:21:04.828Z,100072.13
2018-12-17T06:23:33.209Z,100079.25
2018-12-17T06:26:02.150Z,100076.46
2018-12-17T06:28:30.527Z,100083.56
2018-12-17T06:30:58.903Z,100087.28
2018-12-17T06:33:27.286Z,100097.89
2018-12-17T06:35:55.667Z,100091.30
2018-12-17T06:38:24.035Z,100097.38
2018-12-17T06:40:52.415Z,100098.20
2018-12-17T06:43:20.781Z,100101.57
2018-12-17T06:45:49.174Z,100102.10
2018-12-17T06:48:17.587Z,100102.60
2018-12-17T06:50:46.060Z,100108.37
2018-12-17T06:53:14.491Z,100105.71
2018-12-17T06:55:42.868Z,100109.39
2018-12-17T06:58:11.447Z,100124.47
2018-12-17T07:00:39.829Z,100126.50
2018-12-17T07:03:08.224Z,100125.59
2018-12-17T07:05:36.709Z,100131.17
2018-12-17T07:08:05.155Z,100133.86
2018-12-17T07:10:33.545Z,100139.91
2018-12-17T07:13:01.955Z,100144.36
2018-12-17T07:15:30.351Z,100149.22
2018-12-17T07:17:58.875Z,100155.70
2018-12-17T07:20:27.239Z,100149.61
2018-12-17T07:22:55.623Z,100158.99
2018-12-17T07:25:23.987Z,100150.73
2018-12-17T07:27:52.384Z,100155.59
2018-12-17T07:30:20.805Z,100160.73
2018-12-17T07:32:49.271Z,100168.38
2018-12-17T07:35:17.635Z,100167.15
2018-12-17T07:37:46.026Z,100171.06
2018-12-17T07:40:14.407Z,100179.94
2018-12-17T07:42:42.810Z,100183.23
2018-12-17T07:45:11.291Z,100192.18
2018-12-17T07:47:39.687Z,100189.94
2018-12-17T07:50:08.315Z,100191.48
2018-12-17T07:52:36.813Z,100189.61
2018-12-17T07:55:05.809Z,100194.78
2018-12-17T07:57:34.211Z,100194.56
2018-12-17T08:00:03.394Z,100208.80
2018-12-17T08:02:31.781Z,100201.38
2018-12-17T08:05:00.174Z,100208.70
2018-12-17T08:07:28.583Z,100217.75
2018-12-17T08:09:56.955Z,100226.02
2018-12-17T08:12:25.355Z,100226.74
2018-12-17T08:14:53.735Z,100236.84
2018-12-17T08:17:22.143Z,100232.31
2018-12-17T08:19:50.506Z,100239.31
2018-12-17T08:22:19.280Z,100248.62
2018-12-17T08:24:47.663Z,100247.17
2018-12-17T08:27:16.043Z,100245.72
2018-12-17T08:29:44.415Z,100255.22
2018-12-17T08:32:12.795Z,100235.28
2018-12-17T08:34:41.213Z,100258.91
2018-12-17T08:37:09.597Z,100258.72
2018-12-17T08:39:37.991Z,100262.02
2018-12-17T08:42:06.375Z,100263.86
2018-12-17T08:44:34.895Z,100264.08
2018-12-17T08:47:03.260Z,100269.19
2018-12-17T08:49:31.661Z,100279.83
2018-12-17T08:52:00.068Z,100277.02
2018-12-17T08:54:28.485Z,100278.05
2018-12-17T08:56:56.848Z,100282.39
2018-12-17T08:59:25.243Z,100281.78
2018-12-17T09:01:53.602Z,100295.41
2018-12-17T09:04:22.004Z,100283.61
2018-12-17T09:06:50.379Z,100286.30
2018-12-17T09:09:18.823Z,100301.56
2018-12-17T09:11:47.192Z,100292.09
2018-12-17T09:14:15.615Z,100295.09
2018-12-17T09:16:44.023Z,100302.02
2018-12-17T09:19:12.428Z,100305.33
2018-12-17T09:21:40.784Z,100304.51
2018-12-17T09:24:09.194Z,100312.67
2018-12-17T09:26:37.563Z,100309.27
2018-12-17T09:29:05.969Z,100310.81
2018-12-17T09:31:34.638Z,100310.89
2018-12-17T09:34:03.030Z,100309.86
2018-12-17T09:36:31.418Z,100315.70
2018-12-17T09:38:59.799Z,100318.28
2018-12-17T09:41:28.167Z,100321.68
2018-12-17T09:52:44.833Z,100325.75
2018-12-17T09:55:13.355Z,100327.16
2018-12-17T09:57:41.740Z,100330.00
2018-12-17T10:00:10.392Z,100337.62
2018-12-17T10:02:38.751Z,100338.23
2018-12-17T10:05:07.303Z,100336.23
2018-12-17T10:07:35.647Z,100322.29
2018-12-17T10:10:05.366Z,100318.83
2018-12-17T10:12:33.731Z,100321.58
2018-12-17T10:15:02.144Z,100311.14
2018-12-17T10:17:30.511Z,100306.67
2018-12-17T10:19:58.918Z,100300.16
2018-12-17T10:22:27.295Z,100295.91
2018-12-17T10:24:55.880Z,100290.66
2018-12-17T10:27:24.268Z,100286.70
2018-12-17T10:29:52.674Z,100279.45
2018-12-17T10:32:21.064Z,100271.66
2018-12-17T10:34:49.456Z,100270.78
2018-12-17T10:37:17.855Z,100266.27
2018-12-17T10:39:46.852Z,100269.05
2018-12-17T10:42:15.215Z,100265.98
2018-12-17T10:44:43.585Z,100263.73
2018-12-17T10:47:11.985Z,100265.16
2018-12-17T10:49:40.443Z,100271.22
2018-12-17T10:52:08.844Z,100270.77
2018-12-17T10:54:37.259Z,100267.59
2018-12-17T10:57:05.677Z,100267.98
2018-12-17T10:59:34.061Z,100268.72
2018-12-17T11:02:07.739Z,100271.42
2018-12-17T11:04:41.450Z,100273.94
2018-12-17T11:07:09.965Z,100269.27
2018-12-17T11:09:38.336Z,100272.23
2018-12-17T11:12:24.335Z,100275.89
2018-12-17T11:14:52.731Z,100269.64
2018-12-17T11:17:21.135Z,100270.89
2018-12-17T11:19:49.487Z,100276.56
2018-12-17T11:22:17.854Z,100272.09
2018-12-17T11:24:46.223Z,100273.86
2018-12-17T11:27:14.599Z,100274.11
2018-12-17T11:29:43.089Z,100290.06
2018-12-17T11:32:11.774Z,100286.45
2018-12-17T11:34:40.380Z,100285.07
2018-12-17T11:37:08.771Z,100284.52
2018-12-17T11:39:37.168Z,100294.52
2018-12-17T11:42:05.558Z,100297.22
2018-12-17T11:44:33.938Z,100288.88
2018-12-17T11:47:02.359Z,100296.45
2018-12-17T11:49:30.739Z,100293.89
2018-12-17T11:51:59.120Z,100302.92
2018-12-17T11:54:27.522Z,100303.83
2018-12-17T11:57:06.587Z,100313.77
2018-12-17T11:59:46.783Z,100324.39
2018-12-17T12:02:15.190Z,100340.86
2018-12-17T12:04:43.563Z,100342.66
2018-12-17T12:07:12.331Z,100333.45
2018-12-17T12:09:40.703Z,100344.70
2018-12-17T12:12:09.097Z,100339.66
2018-12-17T12:14:37.494Z,100332.52
2018-12-17T12:17:05.892Z,100333.52
2018-12-17T12:19:34.255Z,100331.38
2018-12-17T12:22:02.653Z,100336.63
2018-12-17T12:24:31.599Z,100341.62
2018-12-17T12:26:59.988Z,100336.43
2018-12-17T12:29:28.344Z,100336.66
2018-12-17T12:31:56.810Z,100341.02
2018-12-17T12:34:25.172Z,100346.88
2018-12-17T12:36:53.682Z,100348.81
2018-12-17T12:39:22.050Z,100354.69
2018-12-17T12:41:50.452Z,100359.05
2018-12-17T12:44:18.832Z,100362.41
2018-12-17T12:46:47.281Z,100356.98
2018-12-17T12:49:15.675Z,100364.30
2018-12-17T12:51:44.037Z,100361.97
2018-12-17T12:54:12.446Z,100364.53
2018-12-17T12:56:40.821Z,100373.34
2018-12-17T12:59:09.240Z,100375.98
2018-12-17T13:01:37.602Z,100385.63
2018-12-17T13:04:06.111Z,100380.98
2018-12-17T13:06:34.473Z,100398.26
2018-12-17T13:09:05.017Z,100397.55
2018-12-17T13:11:33.455Z,100411.47
2018-12-17T13:14:01.844Z,100415.47
2018-12-17T13:16:30.284Z,100416.87
2018-12-17T13:18:58.717Z,100422.90
2018-12-17T13:21:27.115Z,100422.38
2018-12-17T13:23:55.536Z,100431.94
2018-12-17T13:26:23.904Z,100431.80
2018-12-17T13:28:52.280Z,100425.19
2018-12-17T13:31:20.980Z,100433.57
2018-12-17T13:33:49.453Z,100431.38
2018-12-17T13:36:18.654Z,100429.48
2018-12-17T13:38:47.039Z,100432.80
2018-12-17T13:41:15.442Z,100443.54
2018-12-17T13:43:44.056Z,100448.94
2018-12-17T13:46:12.531Z,100454.94
2018-12-17T13:48:41.946Z,100455.97
2018-12-17T13:51:15.446Z,100454.34
2018-12-17T13:53:45.186Z,100454.34
2018-12-17T13:56:13.619Z,100457.47
2018-12-17T13:58:41.995Z,100458.89
2018-12-17T14:01:10.356Z,100457.61
2018-12-17T14:03:38.772Z,100450.48
2018-12-17T14:06:07.155Z,100448.98
2018-12-17T14:08:35.607Z,100453.42
2018-12-17T14:11:04.173Z,100459.20
2018-12-17T14:13:32.558Z,100465.20
2018-12-17T14:16:07.051Z,100466.83
2018-12-17T14:18:41.424Z,100465.48
2018-12-17T14:21:15.102Z,100469.59
2018-12-17T14:23:44.726Z,100472.96
2018-12-17T14:26:13.424Z,100477.70
2018-12-17T14:28:42.060Z,100473.89
2018-12-17T14:31:10.463Z,100482.84
2018-12-17T14:33:39.541Z,100490.15
2018-12-17T14:36:09.178Z,100493.52
2018-12-17T14:38:38.944Z,100507.09
2018-12-17T14:41:07.359Z,100509.42
2018-12-17T14:43:35.875Z,100512.53
2018-12-17T14:46:04.279Z,100521.48
2018-12-17T14:48:32.804Z,100531.05
2018-12-17T14:51:01.452Z,100533.61
2018-12-17T14:53:30.137Z,100536.00
2018-12-17T14:55:58.604Z,100543.00
2018-12-17T14:58:28.263Z,100540.92
2018-12-17T15:00:56.832Z,100555.50
2018-12-17T15:03:25.231Z,100558.16
2018-12-17T15:05:53.627Z,100546.23
2018-12-17T15:08:23.411Z,100559.62
2018-12-17T15:10:51.823Z,100551.70
2018-12-17T15:13:20.228Z,100554.42
2018-12-17T15:15:48.839Z,100564.50
2018-12-17T15:18:17.363Z,100566.13
2018-12-17T15:20:45.749Z,100566.73
2018-12-17T15:23:14.135Z,100571.68
2018-12-17T15:25:42.539Z,100585.70
2018-12-17T15:28:11.026Z,100586.68
2018-12-17T15:30:39.423Z,100592.98
2018-12-17T15:33:08.766Z,100594.83
2018-12-17T15:35:37.268Z,100596.53
2018-12-17T15:38:05.760Z,100596.07
2018-12-17T15:40:34.417Z,100593.64
2018-12-17T15:43:03.095Z,100595.09
2018-12-17T15:45:32.032Z,100598.73
2018-12-17T15:48:00.768Z,100603.16
2018-12-17T15:50:29.244Z,100605.48
2018-12-17T15:52:58.047Z,100616.22
2018-12-17T15:55:26.720Z,100614.83
2018-12-17T15:57:55.145Z,100622.63
2018-12-17T16:00:23.680Z,100627.23
2018-12-17T16:02:53.738Z,100628.45
2018-12-17T16:05:23.552Z,100631.62
2018-12-17T16:07:52.139Z,100640.48
2018-12-17T16:10:21.885Z,100648.58
2018-12-17T16:12:50.373Z,100648.84
2018-12-17T16:15:19.247Z,100644.42
2018-12-17T16:17:47.847Z,100650.68
2018-12-17T16:20:16.292Z,100652.80
2018-12-17T16:22:44.778Z,100662.00
2018-12-17T16:25:13.599Z,100658.73
2018-12-17T16:27:42.060Z,100659.56
2018-12-17T16:30:11.597Z,100665.75
2018-12-17T16:32:40.050Z,100670.14
2018-12-17T16:35:08.731Z,100670.55
2018-12-17T16:37:37.130Z,100672.76
2018-12-17T16:40:07.105Z,100682.52
2018-12-17T16:42:35.487Z,100683.38
2018-12-17T16:45:04.516Z,100685.47
2018-12-17T16:47:32.923Z,100683.29
2018-12-17T16:50:01.304Z,100688.06
2018-12-17T16:52:30.148Z,100689.20
2018-12-17T16:54:58.517Z,100687.44
2018-12-17T16:57:26.915Z,100686.62
2018-12-17T16:59:55.307Z,100686.73
2018-12-17T17:02:23.736Z,100681.53
2018-12-17T17:04:52.115Z,100695.32
2018-12-17T17:07:20.501Z,100691.36
2018-12-17T17:09:49.012Z,100692.59
2018-12-17T17:12:17.396Z,100696.34
2018-12-17T17:14:45.775Z,100694.37
2018-12-17T17:17:14.211Z,100693.92
2018-12-17T17:19:42.604Z,100696.81
2018-12-17T17:22:11.078Z,100695.03
2018-12-17T17:24:39.569Z,100705.75
2018-12-17T17:27:08.033Z,100709.66
2018-12-17T17:29:36.455Z,100706.98
2018-12-17T17:32:11.371Z,100712.50
2018-12-17T17:34:35.567Z,100713.12
2018-12-17T17:37:03.959Z,100714.31
2018-12-17T17:39:32.323Z,100722.50
2018-12-17T17:42:00.717Z,100725.92
2018-12-17T17:44:29.105Z,100729.23
2018-12-17T17:46:57.501Z,100730.58
2018-12-17T17:49:26.548Z,100732.44
2018-12-17T17:51:56.212Z,100742.47
2018-12-17T17:54:24.844Z,100736.08
2018-12-17T17:57:00.127Z,100736.91
2018-12-17T17:59:28.713Z,100743.30
2018-12-17T18:01:57.265Z,100742.17
2018-12-17T18:04:25.646Z,100756.00
2018-12-17T18:06:54.021Z,100751.97
2018-12-17T18:09:22.575Z,100754.45
2018-12-17T18:11:50.959Z,100752.37
2018-12-17T18:14:19.390Z,100753.21
2018-12-17T18:16:47.772Z,100756.54
2018-12-17T18:19:16.163Z,100757.07
2018-12-17T18:21:44.516Z,100758.09
2018-12-17T18:24:13.310Z,100762.23
2018-12-17T18:26:41.724Z,100759.88
2018-12-17T18:29:10.123Z,100766.18
2018-12-17T18:31:38.484Z,100766.11
2018-12-17T18:34:07.109Z,100779.34
2018-12-17T18:36:35.726Z,100785.75
2018-12-17T18:39:08.356Z,100785.63
2018-12-17T18:41:38.561Z,100787.81
2018-12-17T18:44:08.016Z,100795.38
2018-12-17T18:46:43.144Z,100797.96
2018-12-17T18:49:12.385Z,100795.27
2018-12-17T18:51:41.624Z,100799.13
2018-12-17T18:54:16.224Z,100805.85
2018-12-17T18:56:44.775Z,100803.78
2018-12-17T18:59:13.444Z,100813.53
2018-12-17T19:01:51.835Z,100804.65
2018-12-17T19:04:29.400Z,100818.04
2018-12-17T19:07:03.847Z,100812.98
2018-12-17T19:09:33.632Z,100815.20
2018-12-17T19:12:02.239Z,100822.77
2018-12-17T19:14:32.396Z,100823.75
2018-12-17T19:17:03.477Z,100833.98
2018-12-17T19:19:32.559Z,100837.69
2018-12-17T19:22:01.065Z,100838.50
2018-12-17T19:24:29.744Z,100835.24
2018-12-17T19:26:58.419Z,100839.92
2018-12-17T19:29:27.281Z,100838.59
2018-12-17T19:31:55.861Z,100848.88
2018-12-17T19:34:28.309Z,100853.41
2018-12-17T19:36:56.856Z,100855.38
2018-12-17T19:39:25.440Z,100847.11
2018-12-17T19:41:55.063Z,100852.62
2018-12-17T19:44:23.681Z,100854.50
2018-12-17T19:46:52.213Z,100854.18
2018-12-17T19:49:20.644Z,100849.84
2018-12-17T19:51:49.064Z,100861.52
2018-12-17T19:54:17.534Z,100852.12
2018-12-17T19:56:45.928Z,100856.92
2018-12-17T19:59:14.319Z,100858.90
2018-12-17T20:01:42.729Z,100856.92
2018-12-17T20:04:11.205Z,100860.33
2018-12-17T20:06:39.607Z,100857.78
2018-12-17T20:09:08.143Z,100862.22
2018-12-17T20:11:36.535Z,100864.27
2018-12-17T20:14:04.962Z,100866.39
2018-12-17T20:16:34.991Z,100865.59
2018-12-17T20:19:03.447Z,100871.73
2018-12-17T20:21:31.831Z,100872.00
2018-12-17T20:24:00.784Z,100882.62
2018-12-17T20:26:29.224Z,100878.75
2018-12-17T20:28:57.599Z,100880.05
2018-12-17T20:31:26.003Z,100885.81
2018-12-17T20:33:54.379Z,100891.31
2018-12-17T20:36:23.783Z,100895.72
2018-12-17T20:38:52.426Z,100895.14
2018-12-17T20:41:20.861Z,100904.77
2018-12-17T20:43:49.214Z,100901.36
2018-12-17T20:46:17.756Z,100902.59
2018-12-17T20:48:46.131Z,100899.51
2018-12-17T20:51:15.177Z,100900.70
2018-12-17T20:53:43.792Z,100908.44
2018-12-17T20:56:12.777Z,100896.48
2018-12-17T20:58:41.350Z,100889.92
2018-12-17T21:01:10.316Z,100890.16
2018-12-17T21:03:38.720Z,100890.89
2018-12-17T21:06:07.103Z,100896.34
2018-12-17T21:08:35.499Z,100904.91
2018-12-17T21:11:03.996Z,100904.09
2018-12-17T21:13:32.383Z,100904.59
2018-12-17T21:16:00.815Z,100896.48
2018-12-17T21:18:29.191Z,100905.63
2018-12-17T21:20:57.659Z,100911.93
2018-12-17T21:23:26.365Z,100912.27
2018-12-17T21:25:55.139Z,100911.49
2018-12-17T21:28:23.743Z,100916.72
2018-12-17T21:30:52.387Z,100912.77
2018-12-17T21:33:20.913Z,100918.28
2018-12-17T21:35:49.429Z,100921.93
2018-12-17T21:38:17.960Z,100915.75
2018-12-17T21:41:03.853Z,100927.43
2018-12-17T21:43:36.047Z,100920.44
2018-12-17T21:46:02.616Z,100926.13
2018-12-17T21:48:31.405Z,100924.29
2018-12-17T21:50:59.969Z,100927.77
2018-12-17T21:53:28.391Z,100941.02
2018-12-17T21:55:56.755Z,100937.16
2018-12-17T21:58:25.124Z,100940.72
2018-12-17T22:00:53.550Z,100956.20
2018-12-17T22:03:21.937Z,100952.34
2018-12-17T22:05:50.358Z,100958.39
2018-12-17T22:08:18.769Z,100957.07
2018-12-17T22:10:47.141Z,100958.69
2018-12-17T22:13:15.620Z,100957.61
2018-12-17T22:15:44.111Z,100961.57
2018-12-17T22:18:12.575Z,100956.64
2018-12-17T22:20:40.955Z,100954.31
2018-12-17T22:23:09.331Z,100960.02
2018-12-17T22:25:37.699Z,100958.30
2018-12-17T22:28:06.070Z,100954.27
2018-12-17T22:30:34.483Z,100961.02
2018-12-17T22:33:02.873Z,100953.95
2018-12-17T22:35:31.272Z,100956.53
2018-12-17T22:37:59.895Z,100966.85
2018-12-17T22:40:28.259Z,100964.87
2018-12-17T22:42:56.660Z,100971.05
2018-12-17T22:45:25.143Z,100964.80
2018-12-17T22:47:53.667Z,100959.89
2018-12-17T22:50:22.118Z,100964.78
2018-12-17T22:52:50.571Z,100958.67
2018-12-17T22:55:19.275Z,100957.72
2018-12-17T22:57:47.690Z,100959.29
2018-12-17T23:00:16.187Z,100956.49
2018-12-17T23:02:44.583Z,100956.53
2018-12-17T23:05:13.013Z,100961.53
2018-12-17T23:07:41.408Z,100960.42
2018-12-17T23:10:20.979Z,100963.19
2018-12-17T23:13:00.600Z,100959.25
2018-12-17T23:15:40.247Z,100960.66
2018-12-17T23:18:07.531Z,100965.04
2018-12-17T23:20:36.053Z,100967.78
2018-12-17T23:23:04.873Z,100961.19
2018-12-17T23:25:33.282Z,100964.89
2018-12-17T23:28:01.651Z,100971.00
2018-12-17T23:30:30.053Z,100965.73
2018-12-17T23:32:59.950Z,100961.44
2018-12-17T23:35:28.356Z,100959.73
2018-12-17T23:37:56.728Z,100957.35
2018-12-17T23:40:25.126Z,100964.89
2018-12-17T23:42:54.016Z,100956.34
2018-12-17T23:45:22.399Z,100951.87
2018-12-17T23:47:51.704Z,100947.77
2018-12-17T23:50:20.151Z,100941.19
2018-12-17T23:52:48.515Z,100935.67
2018-12-17T23:55:17.012Z,100927.19
2018-12-17T23:57:45.383Z,100915.80
